Overcast with light rain
Overcast with light rain
Partly cloudy and few cirrus
Overcast
Overcast
Overcast
Overcast
(°F)
49°
49°
50°
50°
51°
51°
52°
52°
54°
54°
54°
54°
55°
55°
(°F)
40°
42°
44°
45°
47°
47°
46°
SW
SW
SW
SSW
S
S
S
(mph)
15-23
12-21
12-19
12-22
11-22
12-23
14-26
(in)
0
0
0
0
0
0
0
(%)
65
65
40
17
0
0
0

Sun elevation

/ 17.5°
sun-icon
UV 1
07:22
17:48
Waxing gibbous moon (157°)
15:15
07:16

METAR for Bordenau (EDDV)

Time Conditions Temperature/
Dewpoint
Wind Visibility Weather Clouds Pressure Change Raw
IFR 48.2°F / 46.4°F 210º 7kt 9700m - Overcast 900ft 994 Temporary: Visibility 4000. Light Drizzle . Overcast 1100ft. EDDV 220820Z AUTO 21007KT 9999 OVC009 09/08 Q0994 REDZ TEMPO 4000 -DZ OVC011
IFR 48.2°F / 46.4°F 220º 7kt 2600m Light Rain Light Drizzle Mist 0.20mm precipitation Broken Clouds 600ft
Overcast 1000ft
994 Temporary: Visibility 4000. Drizzle . Scattered Clouds 600ft. Broken Clouds 1100ft. EDDV 220750Z AUTO 22007KT 2600 -RADZ BR BKN006 OVC010 09/08 Q0994 REDZ TEMPO 4000 DZ SCT006 BKN011
IFR 48.2°F / 46.4°F 210º variable 180º to 240º 7kt 2500m Light Rain Light Drizzle Mist 0.20mm precipitation Scattered Clouds 600ft
Overcast 1100ft
994 Temporary: Visibility 4000. Drizzle . Broken Clouds 600ft. EDDV 220720Z AUTO 21007KT 180V240 2500 -RADZ BR SCT006 OVC011 09/08 Q0994 REDZ TEMPO 4000 DZ BKN006
MVFR 46.4°F / 46.4°F 200º variable 170º to 230º 6kt 6000m - Few Clouds 700ft
Overcast 1300ft
994 Temporary: Visibility 4000. Drizzle . Broken Clouds 700ft. EDDV 220650Z AUTO 20006KT 170V230 6000 FEW007 OVC013 08/08 Q0994 REDZ TEMPO 4000 DZ BKN007
MVFR 48.2°F / 44.6°F 200º variable 170º to 230º 7kt 9700m - Overcast 1200ft 995 Temporary: Visibility 4000. Drizzle . Broken Clouds 700ft. EDDV 220620Z AUTO 20007KT 170V230 9999 OVC012 09/07 Q0995 TEMPO 4000 DZ BKN007
MVFR 46.4°F / 44.6°F 200º 7kt 9700m Light Rain Light Drizzle 0.20mm precipitation Few Clouds 700ft
Overcast 1400ft
995 Temporary: Visibility 4000. Drizzle . Broken Clouds 700ft. EDDV 220550Z AUTO 20007KT 9999 -RADZ FEW007 OVC014 08/07 Q0995 TEMPO 4000 DZ BKN007
MVFR 46.4°F / 44.6°F 200º variable 170º to 230º 7kt 8000m Light Drizzle 0.20mm precipitation Few Clouds 700ft
Scattered Clouds 1200ft
Overcast 1700ft
995 Temporary: Visibility 4000. Broken Clouds 1200ft. EDDV 220520Z AUTO 20007KT 170V230 8000 -DZ FEW007 SCT012 OVC017 08/07 Q0995 TEMPO 4000 BKN012
MVFR 46.4°F / 44.6°F 200º variable 170º to 230º 7kt 7000m Light Drizzle 0.20mm precipitation Few Clouds 700ft
Broken Clouds 1200ft
Overcast 1800ft
996 Temporary: Visibility 4000. Broken Clouds 900ft. EDDV 220450Z AUTO 20007KT 170V230 7000 -DZ FEW007 BKN012 OVC018 08/07 Q0996 TEMPO 4000 BKN009
MVFR 46.4°F / 44.6°F 190º variable 160º to 220º 7kt 9700m Light Rain Light Drizzle 0.20mm precipitation Broken Clouds 1300ft
Overcast 1800ft
996 Temporary: Visibility 4000. Broken Clouds 900ft. EDDV 220420Z AUTO 19007KT 160V220 9999 -RADZ BKN013 OVC018 08/07 Q0996 TEMPO 4000 BKN009
MVFR 46.4°F / 44.6°F 190º variable 140º to 210º 7kt 9700m Light Rain Light Drizzle 0.20mm precipitation Overcast 1700ft 996 Temporary: Visibility 4000. Broken Clouds 1400ft. EDDV 220350Z AUTO 19007KT 140V210 9999 -RADZ OVC017 08/07 Q0996 TEMPO 4000 BKN014
MVFR 46.4°F / 44.6°F 190º variable 160º to 220º 7kt 9700m Light Rain Light Drizzle 0.20mm precipitation Broken Clouds 1800ft
Overcast 2200ft
997 - EDDV 220320Z AUTO 19007KT 160V220 9999 -RADZ BKN018 OVC022 08/07 Q0997
MVFR 46.4°F / 44.6°F 190º variable 160º to 220º 8kt 9700m Light Rain 1.00mm precipitation Overcast 2100ft 997 - EDDV 220250Z AUTO 19008KT 160V220 9999 -RA OVC021 08/07 Q0997
MVFR 46.4°F / 42.8°F 190º 8kt 9700m Light Rain 1.00mm precipitation Overcast 2100ft 998 - EDDV 220220Z AUTO 19008KT 9999 -RA OVC021 08/06 Q0998
MVFR 46.4°F / 42.8°F 190º variable 160º to 220º 10kt 9700m Light Rain 1.00mm precipitation Overcast 2200ft 998 - EDDV 220150Z AUTO 19010KT 160V220 9999 -RA OVC022 08/06 Q0998
MVFR 46.4°F / 42.8°F 190º variable 160º to 220º 9kt 9700m Light Rain 1.00mm precipitation Overcast 2300ft 999 - EDDV 220120Z AUTO 19009KT 160V220 9999 -RA OVC023 08/06 Q0999
MVFR 46.4°F / 42.8°F 200º variable 160º to 220º 9kt 9700m Light Rain 1.00mm precipitation Overcast 2300ft 999 - EDDV 220050Z AUTO 20009KT 160V220 9999 -RA OVC023 08/06 Q0999
MVFR 46.4°F / 41°F 190º variable 160º to 220º 11kt 9700m Light Rain 1.00mm precipitation Overcast 2600ft 1000 - EDDV 220020Z AUTO 19011KT 160V220 9999 -RA OVC026 08/05 Q1000
MVFR 46.4°F / 41°F 190º variable 160º to 230º 9kt 9700m Light Rain 1.00mm precipitation Overcast 2800ft 1001 - EDDV 212350Z AUTO 19009KT 160V230 9999 -RA OVC028 08/05 Q1001
MVFR 48.2°F / 41°F 200º 10kt 9700m Light Rain 1.00mm precipitation Overcast 2900ft 1001 - EDDV 212320Z AUTO 20010KT 9999 -RA OVC029 09/05 Q1001
MVFR 48.2°F / 39.2°F 200º variable 160º to 240º 12kt 9700m Light Rain 1.00mm precipitation Overcast 3000ft 1002 - EDDV 212250Z AUTO 20012KT 160V240 9999 -RA OVC030 09/04 Q1002
VFR 48.2°F / 39.2°F 200º variable 160º to 230º 15kt 9700m Light Rain Light Drizzle 0.20mm precipitation Overcast 3100ft 1002 - EDDV 212220Z AUTO 20015KT 160V230 9999 -RADZ OVC031 09/04 Q1002
VFR 50°F / 39.2°F 190º variable 150º to 230º 14kt Gust 25kt 9700m - Overcast 3500ft 1003 - EDDV 212150Z AUTO 19014G25KT 150V230 9999 OVC035 10/04 Q1003
VFR 48.2°F / 39.2°F 190º variable 160º to 220º 10kt 9700m - Overcast 3900ft 1004 - EDDV 212120Z AUTO 19010KT 160V220 9999 OVC039 09/04 Q1004
VFR 50°F / 39.2°F 180º variable 150º to 210º 9kt 9700m Light Rain 1.00mm precipitation Broken Clouds 4200ft 1004 Temporary: Wind 180º 15kt. Gust 25KT. EDDV 212050Z AUTO 18009KT 150V210 9999 -RA BKN042 10/04 Q1004 TEMPO 18015G25KT

IFR

48.2°F / 46.4°F

[More]
Wind 210º 7kt
Visibility 9700m
Weather -
Clouds Overcast 900ft
Pressure 994
Change Temporary: Visibility 4000. Light Drizzle . Overcast 1100ft.
Raw EDDV 220820Z AUTO 21007KT 9999 OVC009 09/08 Q0994 REDZ TEMPO 4000 -DZ OVC011

IFR

48.2°F / 46.4°F

[More]
Wind 220º 7kt
Visibility 2600m
Weather Light Rain Light Drizzle Mist 0.20mm precipitation
Clouds Broken Clouds 600ft
Overcast 1000ft
Pressure 994
Change Temporary: Visibility 4000. Drizzle . Scattered Clouds 600ft. Broken Clouds 1100ft.
Raw EDDV 220750Z AUTO 22007KT 2600 -RADZ BR BKN006 OVC010 09/08 Q0994 REDZ TEMPO 4000 DZ SCT006 BKN011

IFR

48.2°F / 46.4°F

[More]
Wind 210º variable 180º to 240º 7kt
Visibility 2500m
Weather Light Rain Light Drizzle Mist 0.20mm precipitation
Clouds Scattered Clouds 600ft
Overcast 1100ft
Pressure 994
Change Temporary: Visibility 4000. Drizzle . Broken Clouds 600ft.
Raw EDDV 220720Z AUTO 21007KT 180V240 2500 -RADZ BR SCT006 OVC011 09/08 Q0994 REDZ TEMPO 4000 DZ BKN006

MVFR

46.4°F / 46.4°F

[More]
Wind 200º variable 170º to 230º 6kt
Visibility 6000m
Weather -
Clouds Few Clouds 700ft
Overcast 1300ft
Pressure 994
Change Temporary: Visibility 4000. Drizzle . Broken Clouds 700ft.
Raw EDDV 220650Z AUTO 20006KT 170V230 6000 FEW007 OVC013 08/08 Q0994 REDZ TEMPO 4000 DZ BKN007

MVFR

48.2°F / 44.6°F

[More]
Wind 200º variable 170º to 230º 7kt
Visibility 9700m
Weather -
Clouds Overcast 1200ft
Pressure 995
Change Temporary: Visibility 4000. Drizzle . Broken Clouds 700ft.
Raw EDDV 220620Z AUTO 20007KT 170V230 9999 OVC012 09/07 Q0995 TEMPO 4000 DZ BKN007

MVFR

46.4°F / 44.6°F

[More]
Wind 200º 7kt
Visibility 9700m
Weather Light Rain Light Drizzle 0.20mm precipitation
Clouds Few Clouds 700ft
Overcast 1400ft
Pressure 995
Change Temporary: Visibility 4000. Drizzle . Broken Clouds 700ft.
Raw EDDV 220550Z AUTO 20007KT 9999 -RADZ FEW007 OVC014 08/07 Q0995 TEMPO 4000 DZ BKN007

MVFR

46.4°F / 44.6°F

[More]
Wind 200º variable 170º to 230º 7kt
Visibility 8000m
Weather Light Drizzle 0.20mm precipitation
Clouds Few Clouds 700ft
Scattered Clouds 1200ft
Overcast 1700ft
Pressure 995
Change Temporary: Visibility 4000. Broken Clouds 1200ft.
Raw EDDV 220520Z AUTO 20007KT 170V230 8000 -DZ FEW007 SCT012 OVC017 08/07 Q0995 TEMPO 4000 BKN012

MVFR

46.4°F / 44.6°F

[More]
Wind 200º variable 170º to 230º 7kt
Visibility 7000m
Weather Light Drizzle 0.20mm precipitation
Clouds Few Clouds 700ft
Broken Clouds 1200ft
Overcast 1800ft
Pressure 996
Change Temporary: Visibility 4000. Broken Clouds 900ft.
Raw EDDV 220450Z AUTO 20007KT 170V230 7000 -DZ FEW007 BKN012 OVC018 08/07 Q0996 TEMPO 4000 BKN009

MVFR

46.4°F / 44.6°F

[More]
Wind 190º variable 160º to 220º 7kt
Visibility 9700m
Weather Light Rain Light Drizzle 0.20mm precipitation
Clouds Broken Clouds 1300ft
Overcast 1800ft
Pressure 996
Change Temporary: Visibility 4000. Broken Clouds 900ft.
Raw EDDV 220420Z AUTO 19007KT 160V220 9999 -RADZ BKN013 OVC018 08/07 Q0996 TEMPO 4000 BKN009

MVFR

46.4°F / 44.6°F

[More]
Wind 190º variable 140º to 210º 7kt
Visibility 9700m
Weather Light Rain Light Drizzle 0.20mm precipitation
Clouds Overcast 1700ft
Pressure 996
Change Temporary: Visibility 4000. Broken Clouds 1400ft.
Raw EDDV 220350Z AUTO 19007KT 140V210 9999 -RADZ OVC017 08/07 Q0996 TEMPO 4000 BKN014

MVFR

46.4°F / 44.6°F

[More]
Wind 190º variable 160º to 220º 7kt
Visibility 9700m
Weather Light Rain Light Drizzle 0.20mm precipitation
Clouds Broken Clouds 1800ft
Overcast 2200ft
Pressure 997
Change -
Raw EDDV 220320Z AUTO 19007KT 160V220 9999 -RADZ BKN018 OVC022 08/07 Q0997

MVFR

46.4°F / 44.6°F

[More]
Wind 190º variable 160º to 220º 8kt
Visibility 9700m
Weather Light Rain 1.00mm precipitation
Clouds Overcast 2100ft
Pressure 997
Change -
Raw EDDV 220250Z AUTO 19008KT 160V220 9999 -RA OVC021 08/07 Q0997

MVFR

46.4°F / 42.8°F

[More]
Wind 190º 8kt
Visibility 9700m
Weather Light Rain 1.00mm precipitation
Clouds Overcast 2100ft
Pressure 998
Change -
Raw EDDV 220220Z AUTO 19008KT 9999 -RA OVC021 08/06 Q0998

MVFR

46.4°F / 42.8°F

[More]
Wind 190º variable 160º to 220º 10kt
Visibility 9700m
Weather Light Rain 1.00mm precipitation
Clouds Overcast 2200ft
Pressure 998
Change -
Raw EDDV 220150Z AUTO 19010KT 160V220 9999 -RA OVC022 08/06 Q0998

MVFR

46.4°F / 42.8°F

[More]
Wind 190º variable 160º to 220º 9kt
Visibility 9700m
Weather Light Rain 1.00mm precipitation
Clouds Overcast 2300ft
Pressure 999
Change -
Raw EDDV 220120Z AUTO 19009KT 160V220 9999 -RA OVC023 08/06 Q0999

MVFR

46.4°F / 42.8°F

[More]
Wind 200º variable 160º to 220º 9kt
Visibility 9700m
Weather Light Rain 1.00mm precipitation
Clouds Overcast 2300ft
Pressure 999
Change -
Raw EDDV 220050Z AUTO 20009KT 160V220 9999 -RA OVC023 08/06 Q0999

MVFR

46.4°F / 41°F

[More]
Wind 190º variable 160º to 220º 11kt
Visibility 9700m
Weather Light Rain 1.00mm precipitation
Clouds Overcast 2600ft
Pressure 1000
Change -
Raw EDDV 220020Z AUTO 19011KT 160V220 9999 -RA OVC026 08/05 Q1000

MVFR

46.4°F / 41°F

[More]
Wind 190º variable 160º to 230º 9kt
Visibility 9700m
Weather Light Rain 1.00mm precipitation
Clouds Overcast 2800ft
Pressure 1001
Change -
Raw EDDV 212350Z AUTO 19009KT 160V230 9999 -RA OVC028 08/05 Q1001

MVFR

48.2°F / 41°F

[More]
Wind 200º 10kt
Visibility 9700m
Weather Light Rain 1.00mm precipitation
Clouds Overcast 2900ft
Pressure 1001
Change -
Raw EDDV 212320Z AUTO 20010KT 9999 -RA OVC029 09/05 Q1001

MVFR

48.2°F / 39.2°F

[More]
Wind 200º variable 160º to 240º 12kt
Visibility 9700m
Weather Light Rain 1.00mm precipitation
Clouds Overcast 3000ft
Pressure 1002
Change -
Raw EDDV 212250Z AUTO 20012KT 160V240 9999 -RA OVC030 09/04 Q1002

VFR

48.2°F / 39.2°F

[More]
Wind 200º variable 160º to 230º 15kt
Visibility 9700m
Weather Light Rain Light Drizzle 0.20mm precipitation
Clouds Overcast 3100ft
Pressure 1002
Change -
Raw EDDV 212220Z AUTO 20015KT 160V230 9999 -RADZ OVC031 09/04 Q1002

VFR

50°F / 39.2°F

[More]
Wind 190º variable 150º to 230º 14kt Gust 25kt
Visibility 9700m
Weather -
Clouds Overcast 3500ft
Pressure 1003
Change -
Raw EDDV 212150Z AUTO 19014G25KT 150V230 9999 OVC035 10/04 Q1003

VFR

48.2°F / 39.2°F

[More]
Wind 190º variable 160º to 220º 10kt
Visibility 9700m
Weather -
Clouds Overcast 3900ft
Pressure 1004
Change -
Raw EDDV 212120Z AUTO 19010KT 160V220 9999 OVC039 09/04 Q1004

VFR

50°F / 39.2°F

[More]
Wind 180º variable 150º to 210º 9kt
Visibility 9700m
Weather Light Rain 1.00mm precipitation
Clouds Broken Clouds 4200ft
Pressure 1004
Change Temporary: Wind 180º 15kt. Gust 25KT.
Raw EDDV 212050Z AUTO 18009KT 150V210 9999 -RA BKN042 10/04 Q1004 TEMPO 18015G25KT

TAF for Bordenau (EDDV)

From till


From till Wind 190º 12kt. Visibility 9700m. Broken Clouds 1400ft.
Temporarly from till Visibility 2000m. Rain Drizzle . Broken Clouds 700ft.
Becoming from till
Becoming from till
Temporarly from till Rain .
Becoming from till
Temporarly from till Wind 230º 25kt. Gust 45kt.
With 40% probability, Temporarly from till Wind 230º 25kt. Gust 55kt.

Raw: TAF AMD EDDV 220808Z 2208/2306 19012KT 9999 BKN014 TEMPO 2208/2209 2000 RADZ BKN007 BECMG 2209/2212 BKN025 BECMG 2214/2217 17015G25KT TEMPO 2217/2221 RA BECMG 2219/2221 21020G35KT TEMPO 2221/2303 23025G45KT PROB40 TEMPO 2222/2301 23025G55KT

rainNOW: Rain nowcast for Bordenau and surroundings (25km radius)

0.1 inch
0.1 inch
0.0 inch
0.0 inch
0.0 inch
0.0 inch
0.0 inch
0.0 inch
0.0 inch
0.0 inch
0.0 inch
0.0 inch

Radar and precipitation nowcast for Bordenau

Drizzle
Light
Moderate
Heavy
Very Heavy
Hail

The location marker is placed on Bordenau. This animation shows the precipitation radar for the selected time range, as well as a 2h forecast. Orange crosses indicate lightning. Data provided by nowcast.de (available in USA, Europe, Australia). Drizzle or light snow fall might be invisible for the radar. Precipitation intensity is colour coded, ranging from turquoise to red.

Current satellite and rain images for Bordenau, Germany

The location marker is placed on Bordenau. [More]

The real-time satellite image combines visible light during daytime with infrared radiation during nighttime. At night, the image is not dark as infrared radiation can detect temperature differences. Unfortunately, low clouds and fog are difficult to distinguish from ground temperatures and thus can be almost invisible during the night. Meteosat satellite images for Europe are updated in real-time every 5 minutes. GOES-16/GOES-17 (North & South America) and Himawari (Asia) images update every 10 minutes.

Precipitation is estimated from radar and satellites. Precipitation estimates from satellites are less accurate at night than during daytime.

© 2024 meteoblue, NOAA Satellites GOES-16 and EUMETSAT. Lightning data provided by nowcast.

Back to top
×
Hey there,
seems like you are using an ad blocker.

Advertising is essential to maintain our free website with unique detail and accuracy.

Please whitelist www.meteoblue.com on your ad blocker or consider buying one of our products:

Already have a subscription?
Then please login.